createdAt,value
2018-08-20T00:00:11.338Z,21.19
2018-08-20T00:01:11.323Z,21.14
2018-08-20T00:02:11.307Z,21.01
2018-08-20T00:03:11.295Z,21.20
2018-08-20T00:04:11.278Z,21.08
2018-08-20T00:05:11.262Z,21.16
2018-08-20T00:06:11.247Z,21.13
2018-08-20T00:07:11.232Z,21.16
2018-08-20T00:08:11.214Z,21.09
2018-08-20T00:09:11.200Z,21.04
2018-08-20T00:10:11.183Z,21.14
2018-08-20T00:11:11.168Z,21.08
2018-08-20T00:12:11.152Z,21.08
2018-08-20T00:13:11.137Z,20.99
2018-08-20T00:14:11.123Z,21.04
2018-08-20T00:15:11.107Z,20.90
2018-08-20T00:16:11.090Z,20.89
2018-08-20T00:17:11.075Z,20.87
2018-08-20T00:18:11.061Z,20.81
2018-08-20T00:19:11.044Z,20.83
2018-08-20T00:20:11.029Z,20.71
2018-08-20T00:21:11.013Z,20.68
2018-08-20T00:22:11.001Z,20.71
2018-08-20T00:23:10.981Z,20.71
2018-08-20T00:24:10.965Z,20.69
2018-08-20T00:25:10.950Z,20.68
2018-08-20T00:26:10.933Z,20.72
2018-08-20T00:27:10.920Z,20.74
2018-08-20T00:28:10.902Z,20.74
2018-08-20T00:29:10.887Z,20.69
2018-08-20T00:30:10.871Z,20.69
2018-08-20T00:31:10.855Z,20.66
2018-08-20T00:32:10.839Z,20.69
2018-08-20T00:33:10.823Z,20.64
2018-08-20T00:34:10.808Z,20.61
2018-08-20T00:35:10.793Z,20.68
2018-08-20T00:36:10.775Z,20.66
2018-08-20T00:37:10.759Z,20.71
2018-08-20T00:38:10.744Z,20.72
2018-08-20T00:39:10.729Z,20.74
2018-08-20T00:40:10.712Z,20.81
2018-08-20T00:41:10.695Z,20.83
2018-08-20T00:42:10.681Z,20.83
2018-08-20T00:43:10.665Z,20.86
2018-08-20T00:44:10.649Z,20.81
2018-08-20T00:45:10.633Z,20.87
2018-08-20T00:46:10.617Z,20.79
2018-08-20T00:47:10.602Z,20.71
2018-08-20T00:48:10.585Z,20.71
2018-08-20T00:49:10.569Z,20.69
2018-08-20T00:50:10.554Z,20.68
2018-08-20T00:51:10.538Z,20.71
2018-08-20T00:52:10.520Z,20.69
2018-08-20T00:53:10.509Z,20.64
2018-08-20T00:54:10.489Z,20.71
2018-08-20T00:55:10.474Z,20.64
2018-08-20T00:56:10.460Z,20.64
2018-08-20T00:57:11.943Z,20.58
2018-08-20T00:58:10.425Z,20.54
2018-08-20T00:59:10.411Z,20.62
2018-08-20T01:00:10.394Z,20.66
2018-08-20T01:01:10.375Z,20.66
2018-08-20T01:02:10.361Z,20.61
2018-08-20T01:03:10.347Z,20.68
2018-08-20T01:04:10.328Z,20.65
2018-08-20T01:05:10.312Z,20.77
2018-08-20T01:06:10.297Z,20.68
2018-08-20T01:07:10.280Z,20.79
2018-08-20T01:08:10.265Z,20.83
2018-08-20T01:09:10.248Z,20.86
2018-08-20T01:10:10.232Z,20.89
2018-08-20T01:11:10.217Z,20.93
2018-08-20T01:12:10.200Z,20.99
2018-08-20T01:13:10.186Z,20.99
2018-08-20T01:14:10.167Z,20.98
2018-08-20T01:15:10.153Z,20.98
2018-08-20T01:16:10.135Z,20.98
2018-08-20T01:17:10.120Z,21.04
2018-08-20T01:18:10.855Z,21.11
2018-08-20T01:19:11.590Z,21.09
2018-08-20T01:20:10.072Z,21.09
2018-08-20T01:21:10.056Z,21.06
2018-08-20T01:22:10.041Z,21.16
2018-08-20T01:23:10.024Z,21.08
2018-08-20T01:24:10.008Z,21.11
2018-08-20T01:25:10.744Z,21.09
2018-08-20T01:26:09.978Z,21.06
2018-08-20T01:27:09.961Z,21.06
2018-08-20T01:28:09.945Z,21.11
2018-08-20T01:29:09.928Z,21.01
2018-08-20T01:30:09.914Z,21.01
2018-08-20T01:31:09.898Z,20.96
2018-08-20T01:32:09.880Z,20.93
2018-08-20T01:33:09.867Z,20.89
2018-08-20T01:34:09.850Z,20.93
2018-08-20T01:35:09.836Z,20.89
2018-08-20T01:36:09.820Z,20.77
2018-08-20T01:37:09.802Z,20.81
2018-08-20T01:38:09.787Z,20.65
2018-08-20T01:39:09.771Z,20.71
2018-08-20T01:40:09.759Z,20.64
2018-08-20T01:41:09.740Z,20.68
2018-08-20T01:42:09.724Z,20.53
2018-08-20T01:43:09.708Z,20.62
2018-08-20T01:44:09.691Z,20.56
2018-08-20T01:45:09.676Z,20.42
2018-08-20T01:46:09.660Z,20.53
2018-08-20T01:47:09.645Z,20.33
2018-08-20T01:48:09.627Z,20.35
2018-08-20T01:49:09.610Z,20.38
2018-08-20T01:50:09.596Z,20.38
2018-08-20T01:51:09.580Z,20.34
2018-08-20T01:52:09.562Z,20.25
2018-08-20T01:53:09.547Z,20.20
2018-08-20T01:54:09.530Z,20.13
2018-08-20T01:55:09.515Z,20.20
2018-08-20T01:56:09.499Z,20.03
2018-08-20T01:57:09.483Z,20.02
2018-08-20T01:58:09.467Z,20.08
2018-08-20T01:59:09.451Z,19.97
2018-08-20T02:00:09.438Z,19.95
2018-08-20T02:01:09.419Z,19.98
2018-08-20T02:02:09.401Z,19.95
2018-08-20T02:03:09.386Z,19.95
2018-08-20T02:04:09.370Z,19.95
2018-08-20T02:05:09.354Z,19.94
2018-08-20T02:06:09.338Z,19.94
2018-08-20T02:07:09.322Z,19.84
2018-08-20T02:08:09.305Z,19.84
2018-08-20T02:09:09.288Z,19.78
2018-08-20T02:10:09.273Z,19.73
2018-08-20T02:11:09.257Z,19.72
2018-08-20T02:12:09.238Z,19.65
2018-08-20T02:13:09.223Z,19.70
2018-08-20T02:14:09.207Z,19.60
2018-08-20T02:15:09.190Z,19.57
2018-08-20T02:16:09.173Z,19.65
2018-08-20T02:17:09.157Z,19.51
2018-08-20T02:18:09.140Z,19.58
2018-08-20T02:19:09.124Z,19.48
2018-08-20T02:20:09.107Z,19.42
2018-08-20T02:21:09.095Z,19.43
2018-08-20T02:22:09.075Z,19.39
2018-08-20T02:23:09.059Z,19.36
2018-08-20T02:24:09.042Z,19.39
2018-08-20T02:25:09.024Z,19.31
2018-08-20T02:26:09.009Z,19.33
2018-08-20T02:27:08.993Z,19.33
2018-08-20T02:28:08.975Z,19.33
2018-08-20T02:29:08.958Z,19.38
2018-08-20T02:30:08.942Z,19.36
2018-08-20T02:31:08.925Z,19.35
2018-08-20T02:32:08.909Z,19.25
2018-08-20T02:33:08.891Z,19.20
2018-08-20T02:34:08.876Z,19.28
2018-08-20T02:35:08.862Z,19.31
2018-08-20T02:36:08.841Z,19.21
2018-08-20T02:37:08.825Z,19.21
2018-08-20T02:38:08.811Z,19.23
2018-08-20T02:39:08.792Z,19.29
2018-08-20T02:40:08.774Z,19.17
2018-08-20T02:41:08.757Z,19.20
2018-08-20T02:42:08.741Z,19.25
2018-08-20T02:43:08.724Z,19.23
2018-08-20T02:44:08.707Z,19.17
2018-08-20T02:45:08.690Z,19.10
2018-08-20T02:46:08.678Z,19.13
2018-08-20T02:47:08.658Z,19.10
2018-08-20T02:48:08.639Z,19.15
2018-08-20T02:49:09.380Z,19.15
2018-08-20T02:50:08.610Z,19.13
2018-08-20T02:51:08.590Z,19.05
2018-08-20T02:52:08.571Z,19.08
2018-08-20T02:53:08.569Z,18.97
2018-08-20T02:54:08.543Z,18.98
2018-08-20T02:55:08.522Z,18.97
2018-08-20T02:56:08.504Z,18.97
2018-08-20T02:57:08.489Z,18.91
2018-08-20T02:58:08.471Z,18.91
2018-08-20T02:59:08.454Z,18.84
2018-08-20T03:00:08.434Z,18.94
2018-08-20T03:01:08.418Z,18.91
2018-08-20T03:02:08.465Z,18.99
2018-08-20T03:03:08.385Z,18.92
2018-08-20T03:04:08.368Z,19.05
2018-08-20T03:05:08.351Z,19.10
2018-08-20T03:06:08.334Z,19.11
2018-08-20T03:07:08.317Z,19.05
2018-08-20T03:08:08.298Z,19.17
2018-08-20T03:09:08.283Z,19.20
2018-08-20T03:10:08.267Z,19.18
2018-08-20T03:11:08.248Z,19.24
2018-08-20T03:12:08.231Z,19.14
2018-08-20T03:13:08.213Z,19.18
2018-08-20T03:14:08.198Z,19.25
2018-08-20T03:15:08.185Z,19.20
2018-08-20T03:16:08.197Z,19.20
2018-08-20T03:17:08.147Z,19.20
2018-08-20T03:18:08.130Z,19.17
2018-08-20T03:19:08.115Z,19.23
2018-08-20T03:20:08.095Z,19.21
2018-08-20T03:21:08.078Z,19.24
2018-08-20T03:22:08.061Z,19.35
2018-08-20T03:23:08.046Z,19.36
2018-08-20T03:24:08.028Z,19.29
2018-08-20T03:25:08.011Z,19.35
2018-08-20T03:26:07.996Z,19.21
2018-08-20T03:27:07.978Z,19.35
2018-08-20T03:28:07.959Z,19.25
2018-08-20T03:29:07.943Z,19.32
2018-08-20T03:30:07.925Z,19.32
2018-08-20T03:31:07.914Z,19.17
2018-08-20T03:32:07.893Z,19.21
2018-08-20T03:33:07.876Z,19.29
2018-08-20T03:34:07.859Z,19.24
2018-08-20T03:35:07.844Z,19.20
2018-08-20T03:36:08.576Z,19.23
2018-08-20T03:37:07.813Z,19.14
2018-08-20T03:38:07.792Z,19.06
2018-08-20T03:39:07.775Z,19.17
2018-08-20T03:40:07.757Z,19.11
2018-08-20T03:41:07.742Z,19.13
2018-08-20T03:42:07.723Z,19.13
2018-08-20T03:43:07.708Z,19.05
2018-08-20T03:44:07.689Z,19.13
2018-08-20T03:45:07.672Z,19.05
2018-08-20T03:46:07.655Z,19.02
2018-08-20T03:47:07.638Z,18.98
2018-08-20T03:48:07.621Z,18.91
2018-08-20T03:49:07.605Z,18.90
2018-08-20T03:50:07.588Z,18.97
2018-08-20T03:51:07.571Z,18.86
2018-08-20T03:52:07.554Z,18.98
2018-08-20T03:53:07.538Z,18.87
2018-08-20T03:54:07.520Z,18.90
2018-08-20T03:55:07.503Z,18.80
2018-08-20T03:56:07.486Z,18.91
2018-08-20T03:57:07.468Z,18.83
2018-08-20T03:58:07.451Z,18.77
2018-08-20T03:59:07.435Z,18.74
2018-08-20T04:00:07.421Z,18.84
2018-08-20T04:01:07.399Z,18.64
2018-08-20T04:02:07.430Z,18.59
2018-08-20T04:03:07.368Z,18.58
2018-08-20T04:04:07.349Z,18.61
2018-08-20T04:05:07.406Z,18.64
2018-08-20T04:06:07.376Z,18.68
2018-08-20T04:07:07.297Z,18.65
2018-08-20T04:08:07.280Z,18.62
2018-08-20T04:09:07.263Z,18.68
2018-08-20T04:10:07.248Z,18.59
2018-08-20T04:11:07.230Z,18.49
2018-08-20T04:12:07.211Z,18.55
2018-08-20T04:13:07.194Z,18.57
2018-08-20T04:14:07.178Z,18.47
2018-08-20T04:15:07.163Z,18.58
2018-08-20T04:16:07.143Z,18.65
2018-08-20T04:17:07.127Z,18.64
2018-08-20T04:18:07.110Z,18.68
2018-08-20T04:19:07.094Z,18.65
2018-08-20T04:20:07.074Z,18.65
2018-08-20T04:21:07.056Z,18.64
2018-08-20T04:22:07.041Z,18.65
2018-08-20T04:23:07.024Z,18.59
2018-08-20T04:24:07.004Z,18.62
2018-08-20T04:25:06.988Z,18.49
2018-08-20T04:26:06.972Z,18.54
2018-08-20T04:27:06.954Z,18.54
2018-08-20T04:28:06.935Z,18.52
2018-08-20T04:29:06.920Z,18.49
2018-08-20T04:30:06.902Z,18.68
2018-08-20T04:31:06.885Z,18.52
2018-08-20T04:32:06.866Z,18.58
2018-08-20T04:33:06.850Z,18.54
2018-08-20T04:34:06.833Z,18.54
2018-08-20T04:35:06.816Z,18.59
2018-08-20T04:36:06.798Z,18.44
2018-08-20T04:37:06.781Z,18.52
2018-08-20T04:38:06.764Z,18.46
2018-08-20T04:39:06.747Z,18.50
2018-08-20T04:40:06.729Z,18.52
2018-08-20T04:41:06.711Z,18.57
2018-08-20T04:42:06.761Z,18.67
2018-08-20T04:43:06.678Z,18.70
2018-08-20T04:44:06.658Z,18.61
2018-08-20T04:45:06.641Z,18.74
2018-08-20T04:46:06.630Z,18.64
2018-08-20T04:47:06.606Z,18.73
2018-08-20T04:48:06.590Z,18.72
2018-08-20T04:49:08.081Z,18.82
2018-08-20T04:50:06.771Z,18.76
2018-08-20T04:51:06.677Z,18.67
2018-08-20T04:52:06.520Z,18.87
2018-08-20T04:53:06.502Z,18.80
2018-08-20T04:54:06.485Z,18.74
2018-08-20T04:55:06.469Z,18.77
2018-08-20T04:56:06.452Z,18.79
2018-08-20T04:57:06.433Z,18.68
2018-08-20T04:58:06.417Z,18.84
2018-08-20T04:59:06.400Z,18.73
2018-08-20T05:00:06.385Z,18.72
2018-08-20T05:01:06.364Z,18.77
2018-08-20T05:02:06.347Z,18.95
2018-08-20T05:03:06.331Z,18.82
2018-08-20T05:04:06.368Z,18.90
2018-08-20T05:05:06.299Z,18.82
2018-08-20T05:06:07.031Z,18.92
2018-08-20T05:07:06.262Z,18.91
2018-08-20T05:08:06.244Z,18.97
2018-08-20T05:09:06.228Z,18.97
2018-08-20T05:10:06.274Z,19.01
2018-08-20T05:11:06.193Z,19.02
2018-08-20T05:12:06.175Z,19.15
2018-08-20T05:13:06.159Z,19.21
2018-08-20T05:14:06.143Z,19.21
2018-08-20T05:15:06.125Z,19.32
2018-08-20T05:16:06.107Z,19.35
2018-08-20T05:17:06.140Z,19.38
2018-08-20T05:18:06.079Z,19.50
2018-08-20T05:19:06.063Z,19.53
2018-08-20T05:20:06.042Z,19.47
2018-08-20T05:21:06.023Z,19.57
2018-08-20T05:22:06.757Z,19.57
2018-08-20T05:23:05.989Z,19.53
2018-08-20T05:24:05.978Z,19.55
2018-08-20T05:25:05.954Z,19.65
2018-08-20T05:26:05.937Z,19.65
2018-08-20T05:27:05.921Z,19.68
2018-08-20T05:28:05.903Z,19.72
2018-08-20T05:29:05.892Z,19.78
2018-08-20T05:30:05.871Z,19.86
2018-08-20T05:31:05.858Z,19.86
2018-08-20T05:32:05.837Z,20.02
2018-08-20T05:33:08.823Z,19.95
2018-08-20T05:34:05.806Z,19.94
2018-08-20T05:35:05.788Z,20.08
2018-08-20T05:36:05.771Z,20.08
2018-08-20T05:37:05.755Z,20.16
2018-08-20T05:38:05.737Z,20.15
2018-08-20T05:39:05.721Z,20.15
2018-08-20T05:40:05.711Z,20.25
2018-08-20T05:41:05.689Z,20.25
2018-08-20T05:42:05.671Z,20.30
2018-08-20T05:43:05.655Z,20.34
2018-08-20T05:44:05.638Z,20.34
2018-08-20T05:45:05.622Z,20.35
2018-08-20T05:46:05.607Z,20.47
2018-08-20T05:47:05.590Z,20.53
2018-08-20T05:48:05.575Z,20.61
2018-08-20T05:49:05.559Z,20.54
2018-08-20T05:50:05.893Z,20.59
2018-08-20T05:51:05.525Z,20.65
2018-08-20T05:52:05.509Z,20.66
2018-08-20T05:53:05.492Z,20.68
2018-08-20T05:54:05.478Z,20.64
2018-08-20T05:55:05.459Z,20.68
2018-08-20T05:56:05.444Z,20.59
2018-08-20T05:57:05.426Z,20.64
2018-08-20T05:58:05.409Z,20.69
2018-08-20T05:59:05.443Z,20.62
2018-08-20T06:00:05.377Z,20.68
2018-08-20T06:01:05.361Z,20.65
2018-08-20T06:02:05.344Z,20.59
2018-08-20T06:03:05.332Z,20.61
2018-08-20T06:04:05.314Z,20.66
2018-08-20T06:05:05.297Z,20.72
2018-08-20T06:06:05.281Z,20.65
2018-08-20T06:07:05.265Z,20.74
2018-08-20T06:08:05.248Z,20.72
2018-08-20T06:09:05.231Z,20.69
2018-08-20T06:10:05.216Z,20.84
2018-08-20T06:11:05.199Z,20.81
2018-08-20T06:12:05.182Z,20.81
2018-08-20T06:13:05.168Z,20.81
2018-08-20T06:14:05.150Z,20.84
2018-08-20T06:15:05.176Z,20.87
2018-08-20T06:16:05.116Z,20.72
2018-08-20T06:17:05.105Z,20.77
2018-08-20T06:18:05.084Z,20.81
2018-08-20T06:19:05.069Z,20.81
2018-08-20T06:20:05.052Z,20.86
2018-08-20T06:21:05.037Z,20.80
2018-08-20T06:22:05.021Z,20.83
2018-08-20T06:23:05.005Z,20.87
2018-08-20T06:24:04.987Z,20.93
2018-08-20T06:25:05.023Z,20.95
2018-08-20T06:26:06.459Z,20.95
2018-08-20T06:27:04.939Z,20.91
2018-08-20T06:28:04.923Z,20.89
2018-08-20T06:29:04.908Z,20.96
2018-08-20T06:30:04.894Z,21.02
2018-08-20T06:31:04.876Z,21.11
2018-08-20T06:32:04.860Z,21.16
2018-08-20T06:33:04.843Z,21.08
2018-08-20T06:34:04.827Z,21.14
2018-08-20T06:35:04.811Z,21.09
2018-08-20T06:36:04.815Z,21.20
2018-08-20T06:37:04.780Z,21.23
2018-08-20T06:38:04.766Z,21.19
2018-08-20T06:39:04.748Z,21.30
2018-08-20T06:40:04.734Z,21.29
2018-08-20T06:41:04.714Z,21.36
2018-08-20T06:42:04.734Z,21.42
2018-08-20T06:43:05.433Z,21.42
2018-08-20T06:44:04.668Z,21.48
2018-08-20T06:45:04.652Z,21.57
2018-08-20T06:46:04.635Z,21.61
2018-08-20T06:47:04.625Z,21.61
2018-08-20T06:48:04.604Z,21.74
2018-08-20T06:49:04.589Z,21.71
2018-08-20T06:50:04.576Z,21.75
2018-08-20T06:51:04.558Z,21.75
2018-08-20T06:52:04.539Z,21.88
2018-08-20T06:53:04.524Z,21.83
2018-08-20T06:54:04.509Z,21.97
2018-08-20T06:55:04.493Z,22.06
2018-08-20T06:56:04.477Z,22.09
2018-08-20T06:57:04.464Z,22.09
2018-08-20T06:58:04.446Z,22.07
2018-08-20T06:59:04.430Z,22.19
2018-08-20T07:00:04.415Z,22.16
2018-08-20T07:01:04.399Z,22.16
2018-08-20T07:02:04.385Z,22.22
2018-08-20T07:03:04.369Z,22.29
2018-08-20T07:04:04.353Z,22.31
2018-08-20T07:05:08.091Z,22.34
2018-08-20T07:06:04.322Z,22.17
2018-08-20T07:07:04.307Z,22.04
2018-08-20T07:08:04.289Z,21.92
2018-08-20T07:09:04.275Z,21.85
2018-08-20T07:10:04.259Z,22.07
2018-08-20T07:11:06.496Z,22.06
2018-08-20T07:12:04.227Z,22.13
2018-08-20T07:13:04.212Z,22.22
2018-08-20T07:14:04.197Z,22.25
2018-08-20T07:15:04.183Z,22.34
2018-08-20T07:16:04.166Z,22.43
2018-08-20T07:17:09.409Z,22.37
2018-08-20T07:18:04.136Z,22.50
2018-08-20T07:19:04.122Z,22.50
2018-08-20T07:20:04.104Z,22.47
2018-08-20T07:21:04.089Z,22.56
2018-08-20T07:22:04.073Z,22.59
2018-08-20T07:23:04.093Z,22.52
2018-08-20T07:24:04.047Z,22.53
2018-08-20T07:25:04.028Z,22.52
2018-08-20T07:26:04.013Z,22.56
2018-08-20T07:27:03.998Z,22.62
2018-08-20T07:28:03.981Z,22.64
2018-08-20T07:29:03.967Z,22.65
2018-08-20T07:30:03.952Z,22.71
2018-08-20T07:31:03.936Z,22.82
2018-08-20T07:32:03.921Z,22.80
2018-08-20T07:33:03.960Z,22.87
2018-08-20T07:34:03.889Z,22.86
2018-08-20T07:35:03.875Z,22.87
2018-08-20T07:36:03.860Z,22.86
2018-08-20T07:37:03.846Z,22.75
2018-08-20T07:38:03.829Z,22.77
2018-08-20T07:39:03.814Z,22.77
2018-08-20T07:40:03.799Z,22.90
2018-08-20T07:41:03.784Z,22.86
2018-08-20T07:42:03.770Z,23.02
2018-08-20T07:43:03.755Z,23.02
2018-08-20T07:44:03.738Z,23.02
2018-08-20T07:45:03.727Z,23.12
2018-08-20T07:46:03.708Z,23.11
2018-08-20T07:47:03.695Z,23.20
2018-08-20T07:48:03.679Z,23.14
2018-08-20T07:49:03.663Z,23.26
2018-08-20T07:50:03.649Z,23.32
2018-08-20T07:51:03.634Z,23.39
2018-08-20T07:52:03.619Z,23.42
2018-08-20T07:53:03.605Z,23.42
2018-08-20T07:54:03.590Z,23.47
2018-08-20T07:55:03.575Z,23.57
2018-08-20T07:56:03.559Z,23.53
2018-08-20T07:57:03.544Z,23.57
2018-08-20T07:58:03.531Z,23.67
2018-08-20T07:59:03.515Z,23.57
2018-08-20T08:00:03.499Z,23.62
2018-08-20T08:01:03.485Z,23.62
2018-08-20T08:02:03.472Z,23.64
2018-08-20T08:03:03.456Z,23.61
2018-08-20T08:04:03.441Z,23.47
2018-08-20T08:05:03.426Z,23.49
2018-08-20T08:06:03.411Z,23.57
2018-08-20T08:07:03.397Z,23.62
2018-08-20T08:08:03.381Z,23.64
2018-08-20T08:09:03.367Z,23.71
2018-08-20T08:10:03.353Z,23.71
2018-08-20T08:11:04.090Z,23.72
2018-08-20T08:12:03.323Z,23.75
2018-08-20T08:13:03.309Z,23.82
2018-08-20T08:14:03.347Z,23.76
2018-08-20T08:15:03.280Z,23.80
2018-08-20T08:16:03.263Z,23.85
2018-08-20T08:17:03.251Z,23.92
2018-08-20T08:18:03.235Z,23.90
2018-08-20T08:19:03.222Z,24.07
2018-08-20T08:20:03.206Z,24.12
2018-08-20T08:21:03.189Z,24.12
2018-08-20T08:22:03.927Z,23.98
2018-08-20T08:23:03.161Z,23.97
2018-08-20T08:24:03.146Z,23.98
2018-08-20T08:25:03.132Z,24.12
2018-08-20T08:26:03.120Z,24.13
2018-08-20T08:27:03.105Z,24.14
2018-08-20T08:28:03.088Z,24.27
2018-08-20T08:29:03.074Z,24.12
2018-08-20T08:30:03.059Z,24.23
2018-08-20T08:31:03.047Z,24.31
2018-08-20T08:32:03.028Z,24.27
2018-08-20T08:33:03.019Z,24.19
2018-08-20T08:34:03.000Z,24.16
2018-08-20T08:35:02.986Z,24.07
2018-08-20T08:36:02.972Z,24.16
2018-08-20T08:37:02.958Z,24.17
2018-08-20T08:38:03.012Z,24.20
2018-08-20T08:39:02.931Z,24.23
2018-08-20T08:40:02.915Z,24.17
2018-08-20T08:41:02.899Z,24.32
2018-08-20T08:42:02.887Z,24.34
2018-08-20T08:43:02.900Z,24.49
2018-08-20T08:44:02.861Z,24.64
2018-08-20T08:45:02.843Z,24.82
2018-08-20T08:46:02.829Z,24.90
2018-08-20T08:47:02.814Z,24.98
2018-08-20T08:48:02.798Z,24.97
2018-08-20T08:49:02.786Z,24.88
2018-08-20T08:50:02.771Z,24.92
2018-08-20T08:51:02.757Z,24.92
2018-08-20T08:52:02.744Z,25.06
2018-08-20T08:53:02.729Z,25.07
2018-08-20T08:54:02.715Z,25.10
2018-08-20T08:55:02.706Z,25.16
2018-08-20T08:56:02.685Z,25.07
2018-08-20T08:57:02.672Z,25.20
2018-08-20T08:58:02.658Z,25.22
2018-08-20T08:59:02.644Z,25.10
2018-08-20T09:00:02.629Z,25.12
2018-08-20T09:01:02.616Z,25.16
2018-08-20T09:02:02.601Z,25.09
2018-08-20T09:03:02.592Z,25.10
2018-08-20T09:04:02.573Z,25.00
2018-08-20T09:05:02.561Z,25.19
2018-08-20T09:06:02.546Z,25.12
2018-08-20T09:07:02.532Z,25.19
2018-08-20T09:08:02.518Z,25.06
2018-08-20T09:09:02.505Z,25.02
2018-08-20T09:10:02.490Z,25.05
2018-08-20T09:11:02.477Z,25.05
2018-08-20T09:12:02.463Z,25.19
2018-08-20T09:13:02.449Z,25.13
2018-08-20T09:14:02.435Z,25.10
2018-08-20T09:15:02.421Z,25.00
2018-08-20T09:16:02.407Z,25.10
2018-08-20T09:17:02.394Z,25.15
2018-08-20T09:18:02.379Z,25.28
2018-08-20T09:19:02.367Z,25.30
2018-08-20T09:20:02.351Z,25.37
2018-08-20T09:21:02.338Z,25.42
2018-08-20T09:22:02.324Z,25.46
2018-08-20T09:23:02.310Z,25.46
2018-08-20T09:24:02.297Z,25.46
2018-08-20T09:25:02.283Z,25.53
2018-08-20T09:26:03.771Z,25.59
2018-08-20T09:27:02.256Z,25.49
2018-08-20T09:28:02.241Z,25.52
2018-08-20T09:29:02.232Z,25.42
2018-08-20T09:30:02.215Z,25.43
2018-08-20T09:31:02.202Z,25.49
2018-08-20T09:32:02.937Z,25.37
2018-08-20T09:33:02.172Z,25.44
2018-08-20T09:34:02.161Z,25.50
2018-08-20T09:35:02.146Z,25.42
2018-08-20T09:36:02.131Z,25.17
2018-08-20T09:37:02.117Z,25.15
2018-08-20T09:38:02.110Z,25.07
2018-08-20T09:39:02.091Z,25.10
2018-08-20T09:40:02.077Z,25.10
2018-08-20T09:41:02.064Z,25.07
2018-08-20T09:42:02.054Z,25.22
2018-08-20T09:43:02.788Z,25.19
2018-08-20T09:44:02.022Z,25.31
2018-08-20T09:45:02.009Z,25.24
2018-08-20T09:46:01.996Z,25.34
2018-08-20T09:47:01.983Z,25.39
2018-08-20T09:48:01.967Z,25.54
2018-08-20T09:49:01.954Z,25.65
2018-08-20T09:50:01.942Z,25.62
2018-08-20T09:51:01.928Z,25.74
2018-08-20T09:52:01.914Z,25.68
2018-08-20T09:53:01.900Z,25.59
2018-08-20T09:54:01.888Z,25.64
2018-08-20T09:55:01.875Z,25.83
2018-08-20T09:56:01.860Z,25.91
2018-08-20T09:57:01.847Z,25.89
2018-08-20T09:58:01.832Z,25.77
2018-08-20T09:59:01.844Z,25.89
2018-08-20T10:00:01.806Z,25.90
2018-08-20T10:01:01.801Z,25.91
2018-08-20T10:02:01.779Z,25.79
2018-08-20T10:03:01.765Z,25.82
2018-08-20T10:04:01.752Z,25.77
2018-08-20T10:05:01.745Z,25.80
2018-08-20T10:06:01.728Z,25.89
2018-08-20T10:07:01.712Z,25.80
2018-08-20T10:08:01.698Z,25.82
2018-08-20T10:09:01.685Z,25.90
2018-08-20T10:10:01.672Z,26.17
2018-08-20T10:11:01.673Z,26.36
2018-08-20T10:12:01.646Z,26.50
2018-08-20T10:13:01.631Z,26.49
2018-08-20T10:14:02.369Z,26.35
2018-08-20T10:15:01.607Z,26.27
2018-08-20T10:16:01.591Z,26.20
2018-08-20T10:17:01.621Z,26.22
2018-08-20T10:18:01.566Z,26.32
2018-08-20T10:19:01.553Z,26.43
2018-08-20T10:20:01.541Z,26.37
2018-08-20T10:21:01.527Z,26.57
2018-08-20T10:22:01.513Z,26.55
2018-08-20T10:23:01.501Z,26.61
2018-08-20T10:24:01.487Z,26.68
2018-08-20T10:25:01.474Z,26.73
2018-08-20T10:26:01.460Z,26.67
2018-08-20T10:27:01.448Z,26.72
2018-08-20T10:28:01.434Z,26.67
2018-08-20T10:29:01.421Z,26.79
2018-08-20T10:30:01.409Z,26.79
2018-08-20T10:31:01.397Z,26.98
2018-08-20T10:32:01.384Z,27.05
2018-08-20T10:33:01.371Z,27.14
2018-08-20T10:34:01.364Z,27.14
2018-08-20T10:35:01.345Z,27.17
2018-08-20T10:36:01.331Z,27.16
2018-08-20T10:37:01.324Z,27.13
2018-08-20T10:38:01.386Z,27.26
2018-08-20T10:39:01.299Z,27.31
2018-08-20T10:40:01.280Z,27.26
2018-08-20T10:41:01.269Z,27.23
2018-08-20T10:42:01.262Z,27.10
2018-08-20T10:43:01.242Z,27.19
2018-08-20T10:44:01.230Z,27.13
2018-08-20T10:45:01.220Z,26.95
2018-08-20T10:46:01.205Z,27.04
2018-08-20T10:47:01.193Z,27.09
2018-08-20T10:48:01.179Z,27.23
2018-08-20T10:49:01.218Z,27.06
2018-08-20T10:50:01.167Z,27.14
2018-08-20T10:51:01.145Z,27.31
2018-08-20T10:52:01.129Z,27.28
2018-08-20T10:53:01.115Z,27.21
2018-08-20T10:54:01.107Z,27.16
2018-08-20T10:55:01.096Z,27.31
2018-08-20T10:56:01.079Z,27.33
2018-08-20T10:57:01.065Z,27.47
2018-08-20T10:58:01.053Z,27.50
2018-08-20T10:59:01.042Z,27.54
2018-08-20T11:00:01.028Z,27.50
2018-08-20T11:01:01.016Z,27.38
2018-08-20T11:02:01.007Z,27.16
2018-08-20T11:03:00.990Z,27.10
2018-08-20T11:04:00.978Z,27.29
2018-08-20T11:05:00.966Z,27.41
2018-08-20T11:06:00.954Z,27.41
2018-08-20T11:07:00.942Z,27.53
2018-08-20T11:08:00.927Z,27.73
2018-08-20T11:09:00.915Z,27.89
2018-08-20T11:10:00.979Z,27.89
2018-08-20T11:11:00.939Z,27.89
2018-08-20T11:12:00.879Z,27.96
2018-08-20T11:13:00.869Z,28.09
2018-08-20T11:14:00.855Z,28.03
2018-08-20T11:15:00.842Z,27.77
2018-08-20T11:16:00.829Z,27.71
2018-08-20T11:17:00.816Z,27.79
2018-08-20T11:18:00.804Z,27.91
2018-08-20T11:19:00.794Z,27.96
2018-08-20T11:20:00.780Z,27.88
2018-08-20T11:21:00.769Z,27.95
2018-08-20T11:22:00.757Z,27.92
2018-08-20T11:23:00.743Z,27.88
2018-08-20T11:24:00.732Z,27.73
2018-08-20T11:25:00.723Z,27.70
2018-08-20T11:26:00.709Z,27.74
2018-08-20T11:27:00.824Z,27.80
2018-08-20T11:28:00.682Z,27.77
2018-08-20T11:29:00.674Z,27.86
2018-08-20T11:30:00.659Z,27.86
2018-08-20T11:31:00.647Z,27.95
2018-08-20T11:32:00.634Z,27.73
2018-08-20T11:33:00.621Z,27.95
2018-08-20T11:34:00.613Z,27.79
2018-08-20T11:35:00.600Z,27.96
2018-08-20T11:36:00.597Z,27.80
2018-08-20T11:37:00.575Z,27.69
2018-08-20T11:38:00.563Z,27.84
2018-08-20T11:39:00.551Z,27.84
2018-08-20T11:40:00.537Z,27.85
2018-08-20T11:41:00.525Z,27.74
2018-08-20T11:42:00.515Z,27.80
2018-08-20T11:43:00.501Z,27.73
2018-08-20T11:44:00.490Z,27.86
2018-08-20T11:45:00.479Z,27.74
2018-08-20T11:46:00.467Z,27.77
2018-08-20T11:47:00.455Z,27.73
2018-08-20T11:48:00.442Z,27.73
2018-08-20T11:49:00.475Z,27.82
2018-08-20T11:50:00.419Z,27.84
2018-08-20T11:51:00.407Z,27.95
2018-08-20T11:52:00.394Z,27.84
2018-08-20T11:53:00.396Z,27.73
2018-08-20T11:54:00.369Z,27.58
2018-08-20T11:55:00.358Z,27.48
2018-08-20T11:56:00.346Z,27.69
2018-08-20T11:57:00.334Z,27.79
2018-08-20T11:58:00.322Z,27.85
2018-08-20T11:59:01.079Z,27.99
2018-08-20T12:00:00.299Z,28.17
2018-08-20T12:01:00.285Z,28.17
2018-08-20T12:02:00.290Z,28.11
2018-08-20T12:03:00.261Z,28.11
2018-08-20T12:04:00.248Z,27.98
2018-08-20T12:05:00.235Z,28.14
2018-08-20T12:06:00.224Z,28.22
2018-08-20T12:07:00.297Z,28.51
2018-08-20T12:08:00.202Z,28.69
2018-08-20T12:09:00.189Z,28.62
2018-08-20T12:10:00.177Z,28.40
2018-08-20T12:11:00.167Z,28.50
2018-08-20T12:12:00.153Z,28.48
2018-08-20T12:13:00.141Z,28.66
2018-08-20T12:14:00.130Z,28.54
2018-08-20T12:15:00.118Z,28.51
2018-08-20T12:16:00.105Z,28.29
2018-08-20T12:17:00.094Z,28.51
2018-08-20T12:18:00.082Z,28.50
2018-08-20T12:19:00.076Z,28.63
2018-08-20T12:20:00.059Z,28.85
2018-08-20T12:21:00.048Z,28.78
2018-08-20T12:22:00.037Z,28.80
2018-08-20T12:23:00.076Z,28.81
2018-08-20T12:24:00.011Z,28.65
2018-08-20T12:24:59.999Z,28.73
2018-08-20T12:25:59.988Z,28.63
2018-08-20T12:26:59.976Z,28.62
2018-08-20T12:27:59.965Z,28.63
2018-08-20T12:28:59.952Z,28.59
2018-08-20T12:29:59.942Z,28.82
2018-08-20T12:31:00.068Z,29.13
2018-08-20T12:31:59.918Z,29.16
2018-08-20T12:32:59.908Z,29.19
2018-08-20T12:33:59.897Z,28.84
2018-08-20T12:34:59.886Z,28.82
2018-08-20T12:35:59.874Z,28.93
2018-08-20T12:37:00.612Z,29.07
2018-08-20T12:37:59.851Z,29.19
2018-08-20T12:38:59.864Z,29.29
2018-08-20T12:39:59.921Z,29.50
2018-08-20T12:40:59.818Z,29.35
2018-08-20T12:41:59.807Z,29.18
2018-08-20T12:42:59.798Z,29.16
2018-08-20T12:43:59.783Z,29.13
2018-08-20T12:44:59.773Z,29.18
2018-08-20T12:45:59.762Z,29.37
2018-08-20T12:46:59.754Z,29.23
2018-08-20T12:47:59.741Z,29.35
2018-08-20T12:48:59.730Z,29.59
2018-08-20T12:49:59.717Z,29.75
2018-08-20T12:50:59.709Z,29.96
2018-08-20T12:51:59.696Z,30.02